Time;durP1;ratioP1;P1;durP2;ratioP2;P2;SDS_P1;SDS_P2;PMS_P1;PMS_P2;Temp;Humidity;BMP_temperature;BMP_pressure;BME280_temperature;BME280_humidity;BME280_pressure;Samples;Min_cycle;Max_cycle;Signal;HPM_P1;HPM_P2
2023/05/08 00:02:22;;;;;;;0.28;0.10;;;;;;;;;;4999046;28;20054;-63
2023/05/08 00:04:52;;;;;;;4.20;0.20;;;;;;;;;;5031899;28;20549;-63
2023/05/08 00:07:22;;;;;;;2.58;0.10;;;;;;;;;;5015571;28;20572;-61
2023/05/08 00:09:53;;;;;;;0.32;0.10;;;;;;;;;;5031698;28;20057;-61
2023/05/08 00:12:23;;;;;;;0.52;0.20;;;;;;;;;;4983123;28;20049;-61
2023/05/08 00:14:53;;;;;;;3.10;0.30;;;;;;;;;;4924788;28;20082;-61
2023/05/08 00:17:23;;;;;;;1.40;0.20;;;;;;;;;;4977333;28;20054;-62
2023/05/08 00:19:53;;;;;;;3.80;0.30;;;;;;;;;;4976054;28;20061;-61
2023/05/08 00:22:24;;;;;;;0.22;0.10;;;;;;;;;;4959830;28;20050;-62
2023/05/08 00:24:54;;;;;;;0.32;0.10;;;;;;;;;;5011703;28;20053;-62
2023/05/08 00:27:24;;;;;;;0.68;0.30;;;;;;;;;;5011633;28;20545;-63
2023/05/08 00:29:54;;;;;;;2.80;0.10;;;;;;;;;;5011590;28;20048;-63
2023/05/08 00:32:24;;;;;;;1.65;0.20;;;;;;;;;;5011158;28;20053;-64
2023/05/08 00:34:55;;;;;;;0.70;0.10;;;;;;;;;;4962890;28;20057;-64
2023/05/08 00:37:26;;;;;;;0.55;0.20;;;;;;;;;;4973226;28;20062;-65
2023/05/08 00:39:56;;;;;;;0.32;0.22;;;;;;;;;;5010371;28;20065;-63
2023/05/08 00:42:26;;;;;;;0.10;0.10;;;;;;;;;;5011211;28;20069;-64
2023/05/08 00:44:57;;;;;;;0.30;0.10;;;;;;;;;;5011645;28;20061;-63
2023/05/08 00:47:27;;;;;;;6.88;0.40;;;;;;;;;;4991416;28;20442;-62
2023/05/08 00:49:58;;;;;;;1.85;0.30;;;;;;;;;;4991131;28;20097;-62
2023/05/08 00:52:31;;;;;;;0.40;0.35;;;;;;;;;;5001051;28;20060;-63
2023/05/08 00:55:04;;;;;;;0.20;0.10;;;;;;;;;;5021201;28;20057;-61
2023/05/08 00:57:36;;;;;;;1.05;0.22;;;;;;;;;;4947867;28;20049;-64
2023/05/08 01:00:07;;;;;;;0.65;0.10;;;;;;;;;;5011149;28;20057;-62
2023/05/08 01:02:39;;;;;;;1.00;0.10;;;;;;;;;;4988635;28;20049;-61
2023/05/08 01:05:10;;;;;;;1.05;0.30;;;;;;;;;;4982797;28;20173;-62
2023/05/08 01:07:40;;;;;;;0.88;0.17;;;;;;;;;;4959369;28;20058;-62
2023/05/08 01:10:11;;;;;;;5.00;0.22;;;;;;;;;;4971496;28;20062;-65
2023/05/08 01:13:29;;;;;;;1.63;0.10;;;;;;;;;;4971643;28;20511;-63
2023/05/08 01:16:43;;;;;;;0.10;0.05;;;;;;;;;;4901700;29;20055;-63
2023/05/08 01:19:31;;;;;;;0.88;0.10;;;;;;;;;;4898432;29;20064;-63
2023/05/08 01:22:16;;;;;;;0.70;0.22;;;;;;;;;;4914185;29;20055;-61
2023/05/08 01:24:58;;;;;;;1.65;0.20;;;;;;;;;;4882906;29;20100;-61
2023/05/08 01:27:45;;;;;;;1.17;0.10;;;;;;;;;;4914153;29;20075;-61
2023/05/08 01:30:34;;;;;;;3.53;0.20;;;;;;;;;;4882798;29;20052;-63
2023/05/08 01:33:38;;;;;;;1.75;0.30;;;;;;;;;;4913910;29;20052;-61
2023/05/08 01:36:16;;;;;;;;;;;;;;;;;;4914316;29;20064;-62
2023/05/08 01:39:04;;;;;;;2.05;0.22;;;;;;;;;;4914267;29;20052;-62
2023/05/08 01:41:36;;;;;;;0.68;0.10;;;;;;;;;;4932670;29;20058;-61
2023/05/08 01:44:16;;;;;;;0.75;0.10;;;;;;;;;;4916438;29;20554;-63
2023/05/08 01:46:49;;;;;;;4.43;0.20;;;;;;;;;;4913790;29;20048;-62
2023/05/08 01:49:33;;;;;;;0.98;0.10;;;;;;;;;;4920648;28;20047;-64
2023/05/08 01:52:09;;;;;;;2.33;0.10;;;;;;;;;;4932455;29;20052;-62
2023/05/08 01:54:46;;;;;;;2.85;0.25;;;;;;;;;;4916201;29;20058;-62
2023/05/08 01:57:19;;;;;;;0.57;0.30;;;;;;;;;;4932611;29;20060;-61
2023/05/08 01:59:51;;;;;;;0.90;0.20;;;;;;;;;;4893604;29;20049;-61
2023/05/08 02:02:22;;;;;;;0.55;0.20;;;;;;;;;;4894539;29;20493;-63
2023/05/08 02:04:53;;;;;;;1.75;0.22;;;;;;;;;;4894755;29;20418;-62
2023/05/08 02:07:25;;;;;;;0.30;0.10;;;;;;;;;;4879300;29;20573;-61
2023/05/08 02:09:57;;;;;;;1.48;0.40;;;;;;;;;;4863304;29;20107;-63
2023/05/08 02:12:31;;;;;;;2.50;0.20;;;;;;;;;;4875392;29;20059;-61
2023/05/08 02:15:03;;;;;;;0.90;0.20;;;;;;;;;;4875803;29;20509;-62
2023/05/08 02:17:37;;;;;;;0.43;0.30;;;;;;;;;;4875509;29;20052;-60
2023/05/08 02:20:13;;;;;;;0.35;0.10;;;;;;;;;;4859879;29;20060;-60
2023/05/08 02:22:47;;;;;;;1.23;0.20;;;;;;;;;;4895447;29;20052;-63
2023/05/08 02:25:18;;;;;;;1.27;0.10;;;;;;;;;;4923081;29;20059;-62
2023/05/08 02:27:49;;;;;;;0.20;0.08;;;;;;;;;;4963782;28;20543;-62
2023/05/08 02:30:23;;;;;;;0.68;0.32;;;;;;;;;;4970134;28;20062;-62
2023/05/08 02:32:56;;;;;;;0.22;0.10;;;;;;;;;;4984359;28;20051;-61
2023/05/08 02:35:31;;;;;;;1.17;0.43;;;;;;;;;;4989661;28;20054;-63
2023/05/08 02:38:02;;;;;;;0.40;0.20;;;;;;;;;;4936468;29;20543;-63
2023/05/08 02:40:34;;;;;;;1.75;0.20;;;;;;;;;;4931632;29;20047;-62
2023/05/08 02:43:06;;;;;;;1.25;0.15;;;;;;;;;;4931587;29;20063;-63
2023/05/08 02:45:42;;;;;;;0.60;0.17;;;;;;;;;;4954172;28;20046;-62
2023/05/08 02:48:25;;;;;;;0.20;0.13;;;;;;;;;;4919952;29;20051;-62
2023/05/08 02:51:30;;;;;;;0.30;0.10;;;;;;;;;;5001883;28;20065;-62
2023/05/08 02:54:28;;;;;;;0.25;0.00;;;;;;;;;;4928948;29;20052;-61
2023/05/08 02:57:03;;;;;;;1.25;0.20;;;;;;;;;;4919249;29;20043;-62
2023/05/08 02:59:44;;;;;;;0.00;0.00;;;;;;;;;;4899531;29;20071;-62
2023/05/08 03:02:38;;;;;;;0.40;0.10;;;;;;;;;;4911498;29;20060;-62
2023/05/08 03:05:19;;;;;;;0.20;0.10;;;;;;;;;;4887230;29;20465;-62
2023/05/08 03:07:53;;;;;;;1.83;0.20;;;;;;;;;;4879900;29;20056;-64
2023/05/08 03:10:28;;;;;;;0.38;0.08;;;;;;;;;;4858677;29;20064;-62
2023/05/08 03:13:02;;;;;;;0.10;0.05;;;;;;;;;;4855380;29;20041;-63
2023/05/08 03:15:46;;;;;;;0.00;0.00;;;;;;;;;;4851217;29;20133;-62
2023/05/08 03:18:20;;;;;;;0.28;0.10;;;;;;;;;;4846556;29;20205;-63
2023/05/08 03:20:54;;;;;;;2.00;0.17;;;;;;;;;;4873549;29;20049;-64
2023/05/08 03:23:27;;;;;;;0.22;0.10;;;;;;;;;;4853982;29;20064;-62
2023/05/08 03:26:00;;;;;;;0.05;0.05;;;;;;;;;;4847367;29;20054;-62
2023/05/08 03:28:31;;;;;;;0.20;0.10;;;;;;;;;;4810547;29;20055;-62
2023/05/08 03:31:05;;;;;;;0.10;0.10;;;;;;;;;;4842257;29;20477;-63
2023/05/08 03:33:38;;;;;;;0.35;0.10;;;;;;;;;;4880245;29;20050;-63
2023/05/08 03:36:09;;;;;;;0.98;0.10;;;;;;;;;;4874244;29;20060;-63
2023/05/08 03:38:40;;;;;;;0.10;0.10;;;;;;;;;;4874669;29;20053;-63
2023/05/08 03:41:11;;;;;;;0.38;0.10;;;;;;;;;;4885948;29;20053;-63
2023/05/08 03:43:42;;;;;;;0.00;0.00;;;;;;;;;;4870893;29;20660;-62
2023/05/08 03:46:13;;;;;;;0.38;0.30;;;;;;;;;;4874185;29;20364;-63
2023/05/08 03:48:45;;;;;;;0.10;0.00;;;;;;;;;;4874706;29;20057;-63
2023/05/08 03:51:17;;;;;;;0.10;0.10;;;;;;;;;;4893986;29;20093;-63
2023/05/08 03:53:48;;;;;;;0.20;0.20;;;;;;;;;;4930239;29;20059;-63
2023/05/08 03:56:19;;;;;;;0.30;0.30;;;;;;;;;;4868657;29;20447;-63
2023/05/08 03:59:16;;;;;;;1.27;0.10;;;;;;;;;;4879431;29;20055;-62
2023/05/08 04:02:03;;;;;;;0.13;0.10;;;;;;;;;;4908061;29;20082;-63
2023/05/08 04:04:41;;;;;;;0.40;0.20;;;;;;;;;;4909229;29;20064;-63
2023/05/08 04:07:55;;;;;;;0.22;0.20;;;;;;;;;;4907485;29;20057;-63
2023/05/08 04:10:31;;;;;;;1.42;0.32;;;;;;;;;;4889575;29;20418;-64
2023/05/08 04:13:10;;;;;;;0.00;0.00;;;;;;;;;;4873665;29;20053;-64
2023/05/08 04:15:51;;;;;;;1.58;0.10;;;;;;;;;;4874045;29;20088;-63
2023/05/08 04:18:28;;;;;;;0.10;0.10;;;;;;;;;;4898366;29;20477;-64
2023/05/08 04:21:02;;;;;;;0.22;0.22;;;;;;;;;;4911286;29;20044;-64
2023/05/08 04:23:34;;;;;;;0.25;0.10;;;;;;;;;;4905438;29;20049;-64
2023/05/08 04:26:05;;;;;;;0.20;0.10;;;;;;;;;;4877167;29;20522;-63
2023/05/08 04:28:36;;;;;;;0.15;0.10;;;;;;;;;;4870798;29;20064;-64
2023/05/08 04:31:07;;;;;;;0.22;0.20;;;;;;;;;;4874175;29;20438;-64
2023/05/08 04:33:39;;;;;;;0.73;0.30;;;;;;;;;;4852207;29;20054;-63
2023/05/08 04:36:11;;;;;;;;;;;;;;;;;;4834550;29;20062;-63
2023/05/08 04:38:43;;;;;;;0.13;0.10;;;;;;;;;;4858407;29;20324;-65
2023/05/08 04:41:14;;;;;;;0.10;0.10;;;;;;;;;;4836293;29;20050;-64
2023/05/08 04:43:45;;;;;;;0.10;0.10;;;;;;;;;;4840312;29;20057;-63
2023/05/08 04:46:15;;;;;;;0.50;0.20;;;;;;;;;;4821459;29;20053;-63
2023/05/08 04:48:45;;;;;;;2.83;0.10;;;;;;;;;;4790115;29;20136;-63
2023/05/08 04:51:16;;;;;;;0.20;0.10;;;;;;;;;;4798627;29;20063;-63
2023/05/08 04:53:46;;;;;;;0.30;0.10;;;;;;;;;;4821588;29;20054;-64
2023/05/08 04:56:18;;;;;;;0.30;0.20;;;;;;;;;;4813534;29;20164;-63
2023/05/08 04:58:48;;;;;;;;;;;;;;;;;;4815036;29;20452;-63
2023/05/08 05:01:19;;;;;;;1.67;0.10;;;;;;;;;;4859236;29;19935;-63
2023/05/08 05:03:49;;;;;;;0.30;0.20;;;;;;;;;;4876555;29;20053;-63
2023/05/08 05:06:19;;;;;;;0.30;0.20;;;;;;;;;;4895836;29;20159;-64
2023/05/08 05:08:49;;;;;;;1.77;0.35;;;;;;;;;;4914326;29;20141;-63
2023/05/08 05:11:20;;;;;;;1.63;0.30;;;;;;;;;;4923730;29;20060;-64
2023/05/08 05:13:50;;;;;;;0.45;0.30;;;;;;;;;;4901138;29;20056;-64
2023/05/08 05:16:20;;;;;;;0.52;0.10;;;;;;;;;;4943481;28;20055;-64
2023/05/08 05:18:51;;;;;;;0.13;0.13;;;;;;;;;;4933104;29;20503;-63
2023/05/08 05:21:21;;;;;;;0.75;0.43;;;;;;;;;;4892622;29;20525;-64
2023/05/08 05:23:51;;;;;;;0.20;0.20;;;;;;;;;;4905537;29;20057;-63
2023/05/08 05:26:22;;;;;;;1.15;0.20;;;;;;;;;;4878403;29;20061;-63
2023/05/08 05:28:52;;;;;;;0.82;0.40;;;;;;;;;;4879239;29;20080;-64
2023/05/08 05:31:22;;;;;;;2.30;0.10;;;;;;;;;;4906840;29;20409;-64
2023/05/08 05:33:53;;;;;;;2.55;0.10;;;;;;;;;;4923839;29;20486;-64
2023/05/08 05:36:23;;;;;;;1.05;0.47;;;;;;;;;;4877847;29;20099;-64
2023/05/08 05:38:54;;;;;;;0.20;0.20;;;;;;;;;;4894491;29;20044;-64
2023/05/08 05:41:24;;;;;;;0.82;0.10;;;;;;;;;;4879197;29;20056;-63
2023/05/08 05:43:54;;;;;;;0.98;0.10;;;;;;;;;;4857467;29;20050;-64
2023/05/08 05:46:30;;;;;;;1.30;0.20;;;;;;;;;;4857404;29;20061;-64
2023/05/08 05:49:03;;;;;;;1.52;0.20;;;;;;;;;;4848418;29;20053;-63
2023/05/08 05:51:34;;;;;;;2.03;0.17;;;;;;;;;;4875959;29;20143;-64
2023/05/08 05:54:05;;;;;;;1.55;0.50;;;;;;;;;;4838020;29;20162;-64
2023/05/08 05:56:36;;;;;;;2.72;0.20;;;;;;;;;;4847528;29;20058;-64
2023/05/08 05:59:06;;;;;;;0.63;0.20;;;;;;;;;;4837953;29;20073;-64
2023/05/08 06:01:37;;;;;;;3.10;0.13;;;;;;;;;;4838937;29;20058;-63
2023/05/08 06:04:07;;;;;;;0.90;0.30;;;;;;;;;;4853491;29;20054;-64
2023/05/08 06:06:37;;;;;;;1.35;0.10;;;;;;;;;;4829247;29;20055;-64
2023/05/08 06:09:08;;;;;;;0.93;0.93;;;;;;;;;;4810985;29;20105;-64
2023/05/08 06:11:38;;;;;;;1.13;0.10;;;;;;;;;;4811726;29;20560;-64
2023/05/08 06:14:10;;;;;;;0.43;0.20;;;;;;;;;;4829723;29;20058;-64
2023/05/08 06:16:40;;;;;;;8.88;0.28;;;;;;;;;;4847210;29;20065;-64
2023/05/08 06:19:10;;;;;;;0.73;0.22;;;;;;;;;;4839474;29;20438;-63
2023/05/08 06:21:41;;;;;;;1.65;0.30;;;;;;;;;;4865403;29;20053;-64
2023/05/08 06:24:11;;;;;;;5.18;0.30;;;;;;;;;;4858146;29;20050;-63
2023/05/08 06:26:41;;;;;;;4.97;0.30;;;;;;;;;;4887440;29;20059;-63
2023/05/08 06:29:12;;;;;;;2.85;0.22;;;;;;;;;;4921460;29;20090;-64
2023/05/08 06:31:43;;;;;;;4.10;0.20;;;;;;;;;;4947345;29;20063;-63
2023/05/08 06:34:13;;;;;;;5.35;0.30;;;;;;;;;;4913189;29;20065;-64
2023/05/08 06:36:43;;;;;;;6.43;0.30;;;;;;;;;;4908959;29;20471;-64
2023/05/08 06:39:13;;;;;;;0.85;0.20;;;;;;;;;;4911609;29;20060;-64
2023/05/08 06:41:47;;;;;;;1.98;0.40;;;;;;;;;;4949873;28;20582;-64
2023/05/08 06:44:28;;;;;;;1.05;0.20;;;;;;;;;;4950546;29;20066;-63
2023/05/08 06:46:58;;;;;;;8.07;0.30;;;;;;;;;;4950529;28;20063;-64
2023/05/08 06:49:29;;;;;;;3.78;0.60;;;;;;;;;;4934496;29;20054;-63
2023/05/08 06:52:00;;;;;;;2.85;0.30;;;;;;;;;;4954235;28;20066;-63
2023/05/08 06:54:30;;;;;;;2.20;0.82;;;;;;;;;;4940258;28;20054;-64
2023/05/08 06:57:00;;;;;;;0.50;0.10;;;;;;;;;;4989661;28;20054;-63
2023/05/08 06:59:30;;;;;;;1.42;0.40;;;;;;;;;;5011411;28;20405;-64
2023/05/08 07:02:00;;;;;;;1.58;0.20;;;;;;;;;;5028786;28;20057;-64
2023/05/08 07:04:31;;;;;;;2.55;0.28;;;;;;;;;;5028955;28;20056;-63
2023/05/08 07:07:01;;;;;;;0.60;0.20;;;;;;;;;;4995801;28;20525;-64
2023/05/08 07:09:31;;;;;;;8.85;0.25;;;;;;;;;;5028482;28;20064;-64
2023/05/08 07:12:01;;;;;;;0.57;0.13;;;;;;;;;;5028720;28;20049;-63
2023/05/08 07:14:32;;;;;;;1.45;0.20;;;;;;;;;;5028311;28;20041;-64
2023/05/08 07:17:07;;;;;;;1.48;0.30;;;;;;;;;;4995820;28;20057;-64
2023/05/08 07:19:37;;;;;;;8.00;0.52;;;;;;;;;;5028628;28;20073;-64
2023/05/08 07:22:07;;;;;;;2.17;0.30;;;;;;;;;;5038831;28;20056;-63
2023/05/08 07:24:38;;;;;;;1.50;0.55;;;;;;;;;;5048287;28;20044;-64
2023/05/08 07:27:08;;;;;;;0.80;0.20;;;;;;;;;;5015412;28;20061;-63
2023/05/08 07:29:42;;;;;;;3.03;0.30;;;;;;;;;;5048464;28;20060;-63
2023/05/08 07:32:12;;;;;;;2.08;0.20;;;;;;;;;;5030822;28;20052;-64
2023/05/08 07:34:42;;;;;;;3.38;0.30;;;;;;;;;;5067475;28;20044;-64
2023/05/08 07:37:12;;;;;;;1.27;0.30;;;;;;;;;;5051204;28;20419;-64
2023/05/08 07:39:43;;;;;;;1.50;0.20;;;;;;;;;;5068291;28;20060;-63
2023/05/08 07:42:13;;;;;;;0.77;0.40;;;;;;;;;;5067911;28;20052;-64
2023/05/08 07:44:43;;;;;;;1.15;0.20;;;;;;;;;;5068297;28;20049;-64
2023/05/08 07:47:22;;;;;;;2.50;0.40;;;;;;;;;;5038185;28;20063;-64
2023/05/08 07:49:53;;;;;;;1.15;0.30;;;;;;;;;;5068243;28;20049;-63
2023/05/08 07:52:23;;;;;;;2.78;0.30;;;;;;;;;;5068181;28;20056;-64
2023/05/08 07:54:54;;;;;;;1.17;0.30;;;;;;;;;;5018039;28;20048;-62
2023/05/08 07:57:24;;;;;;;2.90;0.30;;;;;;;;;;5034917;28;20061;-63
2023/05/08 07:59:54;;;;;;;2.17;0.80;;;;;;;;;;5070915;28;20061;-63
2023/05/08 08:02:24;;;;;;;2.20;0.20;;;;;;;;;;5055676;28;20511;-63
2023/05/08 08:04:56;;;;;;;4.25;0.40;;;;;;;;;;5071959;28;20403;-63
2023/05/08 08:07:27;;;;;;;1.63;0.20;;;;;;;;;;5072280;28;20148;-63
2023/05/08 08:09:57;;;;;;;3.45;0.43;;;;;;;;;;5071836;28;20049;-63
2023/05/08 08:12:28;;;;;;;2.85;0.50;;;;;;;;;;5095281;28;20079;-63
2023/05/08 08:14:59;;;;;;;0.73;0.30;;;;;;;;;;5114924;28;20047;-63
2023/05/08 08:17:29;;;;;;;0.55;0.25;;;;;;;;;;5062545;28;20044;-63
2023/05/08 08:19:59;;;;;;;2.40;0.25;;;;;;;;;;5078637;28;20465;-63
2023/05/08 08:22:29;;;;;;;0.73;0.73;;;;;;;;;;5063523;28;20074;-63
2023/05/08 08:25:00;;;;;;;10.55;0.40;;;;;;;;;;5114714;28;20051;-63
2023/05/08 08:27:31;;;;;;;1.88;0.20;;;;;;;;;;5114893;28;20047;-63
2023/05/08 08:30:01;;;;;;;0.50;0.20;;;;;;;;;;5095539;28;20058;-63
2023/05/08 08:32:45;;;;;;;3.65;0.40;;;;;;;;;;5114764;28;20454;-64
2023/05/08 08:35:15;;;;;;;0.88;0.30;;;;;;;;;;5115180;28;20048;-63
2023/05/08 08:37:47;;;;;;;0.85;0.20;;;;;;;;;;5046094;28;20050;-63
2023/05/08 08:40:16;;;;;;;3.85;0.40;;;;;;;;;;5095446;28;20478;-63
2023/05/08 08:42:46;;;;;;;0.57;0.20;;;;;;;;;;5114445;28;20048;-63
2023/05/08 08:45:17;;;;;;;5.68;0.50;;;;;;;;;;5114304;28;20048;-63
2023/05/08 08:47:50;;;;;;;5.80;0.43;;;;;;;;;;5061469;28;20056;-63
2023/05/08 08:50:22;;;;;;;1.85;0.35;;;;;;;;;;5077948;28;20063;-63
2023/05/08 08:53:07;;;;;;;3.63;0.40;;;;;;;;;;5114614;28;20483;-62
2023/05/08 08:55:45;;;;;;;2.05;0.38;;;;;;;;;;5114207;28;20044;-63
2023/05/08 08:58:26;;;;;;;1.52;0.40;;;;;;;;;;5078355;28;20062;-64
2023/05/08 09:00:59;;;;;;;1.42;0.30;;;;;;;;;;5114263;28;20046;-65
2023/05/08 09:03:32;;;;;;;2.08;0.43;;;;;;;;;;5114213;28;20050;-64
2023/05/08 09:06:03;;;;;;;1.25;0.50;;;;;;;;;;5113884;28;20047;-64
2023/05/08 09:08:34;;;;;;;2.53;0.63;;;;;;;;;;5094056;28;20051;-65
2023/05/08 09:11:05;;;;;;;4.40;0.52;;;;;;;;;;5113511;28;20395;-65
2023/05/08 09:13:35;;;;;;;3.15;0.40;;;;;;;;;;5114206;28;20040;-64
2023/05/08 09:16:05;;;;;;;4.15;0.47;;;;;;;;;;5028653;28;20040;-65
2023/05/08 09:18:37;;;;;;;4.28;0.63;;;;;;;;;;5113811;28;20065;-65
2023/05/08 09:21:07;;;;;;;4.95;0.45;;;;;;;;;;5113728;28;20043;-65
2023/05/08 09:23:55;;;;;;;2.60;0.50;;;;;;;;;;5114015;28;20038;-64
2023/05/08 09:26:31;;;;;;;1.00;0.30;;;;;;;;;;5062271;28;20052;-64
2023/05/08 09:29:09;;;;;;;0.88;0.20;;;;;;;;;;5061138;28;20055;-65
2023/05/08 09:31:43;;;;;;;0.65;0.30;;;;;;;;;;5113587;28;20040;-64
2023/05/08 09:34:26;;;;;;;2.15;0.30;;;;;;;;;;5113372;28;20043;-64
2023/05/08 09:37:16;;;;;;;0.50;0.22;;;;;;;;;;5113205;28;20494;-65
2023/05/08 09:39:47;;;;;;;3.90;0.30;;;;;;;;;;4990882;28;20046;-64
2023/05/08 09:42:17;;;;;;;0.88;0.30;;;;;;;;;;4991079;28;20506;-65
2023/05/08 09:44:52;;;;;;;0.70;0.30;;;;;;;;;;4991084;28;20066;-64
2023/05/08 09:47:24;;;;;;;6.63;0.40;;;;;;;;;;5007076;28;20065;-65
2023/05/08 09:50:07;;;;;;;7.03;0.40;;;;;;;;;;4990705;28;20054;-65
2023/05/08 09:52:44;;;;;;;0.40;0.30;;;;;;;;;;4974588;28;20230;-65
2023/05/08 09:55:15;;;;;;;1.02;0.30;;;;;;;;;;5007013;28;20055;-64
2023/05/08 09:57:56;;;;;;;0.20;0.13;;;;;;;;;;4990674;28;20211;-64
2023/05/08 10:00:28;;;;;;;0.30;0.10;;;;;;;;;;4990316;28;20057;-64
2023/05/08 10:03:03;;;;;;;0.85;0.20;;;;;;;;;;4990319;28;20524;-64
2023/05/08 10:05:35;;;;;;;0.20;0.10;;;;;;;;;;4958123;28;20062;-64
2023/05/08 10:08:20;;;;;;;0.52;0.30;;;;;;;;;;4990524;28;20458;-64
2023/05/08 10:10:50;;;;;;;0.45;0.30;;;;;;;;;;4975543;28;20072;-63
2023/05/08 10:13:20;;;;;;;1.10;0.10;;;;;;;;;;4990195;28;20059;-63
2023/05/08 10:15:54;;;;;;;0.63;0.30;;;;;;;;;;4991620;28;20159;-63
2023/05/08 10:18:30;;;;;;;1.65;0.38;;;;;;;;;;5053003;28;20052;-63
2023/05/08 10:21:07;;;;;;;2.78;0.20;;;;;;;;;;5036715;28;20060;-65
2023/05/08 10:23:38;;;;;;;0.60;0.22;;;;;;;;;;5052178;28;20037;-63
2023/05/08 10:26:15;;;;;;;0.60;0.20;;;;;;;;;;5019687;28;20075;-65
2023/05/08 10:28:56;;;;;;;0.65;0.22;;;;;;;;;;5069253;28;20052;-63
2023/05/08 10:31:34;;;;;;;3.33;0.50;;;;;;;;;;5069323;28;20084;-63
2023/05/08 10:34:05;;;;;;;1.05;0.20;;;;;;;;;;5052746;28;20543;-63
2023/05/08 10:36:36;;;;;;;0.75;0.10;;;;;;;;;;5038837;28;20064;-65
2023/05/08 10:39:07;;;;;;;2.20;0.43;;;;;;;;;;5089363;28;20555;-65
2023/05/08 10:41:38;;;;;;;0.43;0.10;;;;;;;;;;5039145;28;20059;-61
2023/05/08 10:44:10;;;;;;;0.00;0.00;;;;;;;;;;5089119;28;20052;-61
2023/05/08 10:46:50;;;;;;;55.00;19.45;;;;;;;;;;5055192;28;20071;-61
2023/05/08 10:50:01;;;;;;;7.45;2.72;;;;;;;;;;5023612;28;20098;-62
2023/05/08 10:52:53;;;;;;;26.40;13.30;;;;;;;;;;5111767;28;20039;-63
2023/05/08 10:55:38;;;;;;;2.45;0.80;;;;;;;;;;5111633;28;20044;-63
2023/05/08 10:58:15;;;;;;;;;;;;;;;;;;5030437;28;20059;-63
2023/05/08 11:01:01;;;;;;;0.82;0.52;;;;;;;;;;5108668;28;19920;-63
2023/05/08 11:03:45;;;;;;;0.95;0.55;;;;;;;;;;5048391;28;20068;-64
2023/05/08 11:06:15;;;;;;;2.60;1.50;;;;;;;;;;4967573;28;20161;-64
2023/05/08 11:08:51;;;;;;;4.32;0.50;;;;;;;;;;5008862;28;20066;-63
2023/05/08 11:11:32;;;;;;;2.13;1.23;;;;;;;;;;5015297;28;20058;-63
2023/05/08 11:14:08;;;;;;;2.78;0.80;;;;;;;;;;4996505;28;20061;-64
2023/05/08 11:16:53;;;;;;;0.28;0.15;;;;;;;;;;5028218;28;20041;-65
2023/05/08 11:19:25;;;;;;;0.73;0.40;;;;;;;;;;5028258;28;20061;-64
2023/05/08 11:22:15;;;;;;;0.60;0.20;;;;;;;;;;4995539;28;20053;-64
2023/05/08 11:24:57;;;;;;;1.40;0.50;;;;;;;;;;4995547;28;20072;-63
2023/05/08 11:27:36;;;;;;;1.30;0.45;;;;;;;;;;5028317;28;20081;-64
2023/05/08 11:30:33;;;;;;;0.50;0.30;;;;;;;;;;5011582;28;20060;-64
2023/05/08 11:33:03;;;;;;;0.90;0.22;;;;;;;;;;5027656;28;20045;-64
2023/05/08 11:35:40;;;;;;;1.15;0.30;;;;;;;;;;5007621;28;20053;-64
2023/05/08 11:38:17;;;;;;;1.70;0.43;;;;;;;;;;5008225;28;20064;-62
2023/05/08 11:41:17;;;;;;;4.07;1.23;;;;;;;;;;4973169;28;20056;-62
2023/05/08 11:44:08;;;;;;;4.30;1.20;;;;;;;;;;5008178;28;20057;-64
2023/05/08 11:46:42;;;;;;;1.95;0.68;;;;;;;;;;5008686;28;20061;-62
2023/05/08 11:49:15;;;;;;;1.73;0.50;;;;;;;;;;4975830;28;20809;-62
2023/05/08 11:51:53;;;;;;;1.25;0.60;;;;;;;;;;4991934;28;20069;-63
2023/05/08 11:54:25;;;;;;;1.00;0.55;;;;;;;;;;5008130;28;20069;-63
2023/05/08 11:56:58;;;;;;;2.10;0.60;;;;;;;;;;4976151;28;20058;-62
2023/05/08 11:59:28;;;;;;;2.78;1.05;;;;;;;;;;4991480;28;20675;-62
2023/05/08 12:01:58;;;;;;;0.95;0.50;;;;;;;;;;5008303;28;20061;-62
2023/05/08 12:04:46;;;;;;;;;;;;;;;;;;4976201;28;20065;-63
2023/05/08 12:07:17;;;;;;;1.85;0.70;;;;;;;;;;5008007;28;19929;-62
2023/05/08 12:09:47;;;;;;;1.20;0.60;;;;;;;;;;5008154;28;20498;-62
2023/05/08 12:12:17;;;;;;;4.53;0.80;;;;;;;;;;5010415;28;20061;-62
2023/05/08 12:14:50;;;;;;;2.15;0.65;;;;;;;;;;5028052;28;20536;-62
2023/05/08 12:17:20;;;;;;;3.95;0.70;;;;;;;;;;5027684;28;20497;-62
2023/05/08 12:19:55;;;;;;;2.83;1.02;;;;;;;;;;5014346;28;20055;-62
2023/05/08 12:22:26;;;;;;;1.88;0.93;;;;;;;;;;5057741;28;20050;-62
2023/05/08 12:24:57;;;;;;;2.38;0.90;;;;;;;;;;5067543;28;20044;-62
2023/05/08 12:27:28;;;;;;;2.72;1.17;;;;;;;;;;5067519;28;20061;-62
2023/05/08 12:29:58;;;;;;;3.30;1.00;;;;;;;;;;5067753;28;20061;-63
2023/05/08 12:32:29;;;;;;;6.07;1.88;;;;;;;;;;5063477;28;20575;-62
2023/05/08 12:35:00;;;;;;;2.90;1.33;;;;;;;;;;5055953;28;20068;-62
2023/05/08 12:37:31;;;;;;;2.08;0.70;;;;;;;;;;5006696;28;20049;-63
2023/05/08 12:40:01;;;;;;;1.55;0.70;;;;;;;;;;5060404;28;20044;-63
2023/05/08 12:42:45;;;;;;;2.72;1.00;;;;;;;;;;5058599;28;20068;-63
2023/05/08 12:45:27;;;;;;;4.40;0.70;;;;;;;;;;4983286;28;20052;-63
2023/05/08 12:48:05;;;;;;;2.28;0.60;;;;;;;;;;5059336;28;20056;-63
2023/05/08 12:50:40;;;;;;;1.02;0.40;;;;;;;;;;5070763;28;20059;-62
2023/05/08 12:53:16;;;;;;;0.90;0.63;;;;;;;;;;5070905;28;20056;-62
2023/05/08 12:55:52;;;;;;;2.83;0.73;;;;;;;;;;5070750;28;20532;-63
2023/05/08 12:58:30;;;;;;;1.38;0.75;;;;;;;;;;5050465;28;20045;-63
2023/05/08 13:01:11;;;;;;;2.95;1.10;;;;;;;;;;5018589;28;20065;-62
2023/05/08 13:03:41;;;;;;;2.78;0.80;;;;;;;;;;5055609;28;20052;-63
2023/05/08 13:06:20;;;;;;;3.67;1.80;;;;;;;;;;5043662;28;20064;-63
2023/05/08 13:08:54;;;;;;;1.33;0.70;;;;;;;;;;5091156;28;20055;-62
2023/05/08 13:11:33;;;;;;;1.63;1.05;;;;;;;;;;5090979;28;20628;-62
2023/05/08 13:14:03;;;;;;;1.10;0.60;;;;;;;;;;5091013;28;20527;-62
2023/05/08 13:16:46;;;;;;;0.82;0.60;;;;;;;;;;5029766;28;20059;-62
2023/05/08 13:19:17;;;;;;;2.22;0.85;;;;;;;;;;5042295;28;20507;-62
2023/05/08 13:21:48;;;;;;;2.55;0.82;;;;;;;;;;5008775;28;20412;-62
2023/05/08 13:24:18;;;;;;;1.23;0.60;;;;;;;;;;5057726;28;20052;-62
2023/05/08 13:26:48;;;;;;;2.25;0.90;;;;;;;;;;5057784;28;20494;-63
2023/05/08 13:29:20;;;;;;;1.80;0.60;;;;;;;;;;5059601;28;20051;-63
2023/05/08 13:31:53;;;;;;;3.55;0.98;;;;;;;;;;5066317;28;20052;-63
2023/05/08 13:34:24;;;;;;;1.80;0.93;;;;;;;;;;5079400;28;20411;-62
2023/05/08 13:36:54;;;;;;;1.70;1.00;;;;;;;;;;5093852;27;20399;-62
2023/05/08 13:39:27;;;;;;;1.23;0.50;;;;;;;;;;5080355;27;20047;-62
2023/05/08 13:41:57;;;;;;;1.05;0.43;;;;;;;;;;5032208;27;20055;-63
2023/05/08 13:44:27;;;;;;;1.95;0.45;;;;;;;;;;5089966;28;20056;-62
2023/05/08 13:46:57;;;;;;;3.15;0.60;;;;;;;;;;5039507;28;20101;-63
2023/05/08 13:49:27;;;;;;;0.82;0.50;;;;;;;;;;5090250;28;20060;-63
2023/05/08 13:51:58;;;;;;;0.75;0.40;;;;;;;;;;5090265;28;20532;-62
2023/05/08 13:54:29;;;;;;;0.60;0.30;;;;;;;;;;5032489;28;20092;-62
2023/05/08 13:57:01;;;;;;;0.45;0.30;;;;;;;;;;5049723;28;20543;-63
2023/05/08 13:59:31;;;;;;;1.33;0.50;;;;;;;;;;5049874;28;20458;-62
2023/05/08 14:02:01;;;;;;;1.40;0.52;;;;;;;;;;5032640;28;20064;-62
2023/05/08 14:05:13;;;;;;;1.15;0.60;;;;;;;;;;4995384;27;2283867;-63
2023/05/08 14:07:44;;;;;;;5.47;1.10;;;;;;;;;;4961191;28;20381;-65
2023/05/08 14:10:16;;;;;;;2.40;0.73;;;;;;;;;;4995485;28;20050;-64
2023/05/08 14:12:46;;;;;;;3.03;0.95;;;;;;;;;;4994262;28;20535;-63
2023/05/08 14:15:18;;;;;;;2.38;0.93;;;;;;;;;;4967543;28;20048;-64
2023/05/08 14:17:49;;;;;;;5.07;1.85;;;;;;;;;;5038416;28;20485;-63
2023/05/08 14:20:19;;;;;;;3.60;1.40;;;;;;;;;;5037439;28;20042;-64
2023/05/08 14:22:50;;;;;;;1.55;0.95;;;;;;;;;;5040156;28;20041;-63
2023/05/08 14:25:23;;;;;;;1.02;0.60;;;;;;;;;;5048755;28;20053;-63
2023/05/08 14:27:53;;;;;;;1.77;0.68;;;;;;;;;;5021671;28;20045;-63
2023/05/08 14:30:23;;;;;;;1.42;0.63;;;;;;;;;;5045924;28;20053;-63
2023/05/08 14:32:54;;;;;;;1.13;0.70;;;;;;;;;;5032577;28;20049;-63
2023/05/08 14:35:26;;;;;;;1.63;0.32;;;;;;;;;;5006553;28;20058;-63
2023/05/08 14:37:56;;;;;;;0.65;0.30;;;;;;;;;;5019033;28;20086;-62
2023/05/08 14:40:26;;;;;;;1.30;0.38;;;;;;;;;;5019992;28;20413;-63
2023/05/08 14:42:56;;;;;;;0.82;0.30;;;;;;;;;;5026302;28;20045;-62
2023/05/08 14:45:26;;;;;;;0.47;0.20;;;;;;;;;;5017886;28;20041;-63
2023/05/08 14:47:57;;;;;;;0.55;0.22;;;;;;;;;;5022889;28;20126;-63
2023/05/08 14:50:27;;;;;;;1.23;0.50;;;;;;;;;;5006061;28;20050;-62
2023/05/08 14:52:57;;;;;;;0.50;0.30;;;;;;;;;;4992293;28;20042;-62
2023/05/08 14:55:27;;;;;;;0.88;0.57;;;;;;;;;;4990239;28;20063;-62
2023/05/08 14:57:58;;;;;;;1.65;0.30;;;;;;;;;;5008673;28;20089;-62
2023/05/08 15:00:28;;;;;;;0.60;0.28;;;;;;;;;;5015869;28;20054;-62
2023/05/08 15:02:59;;;;;;;1.55;0.30;;;;;;;;;;4997931;28;20046;-62
2023/05/08 15:05:30;;;;;;;0.73;0.40;;;;;;;;;;4998532;28;20428;-62
2023/05/08 15:08:01;;;;;;;0.60;0.40;;;;;;;;;;4981907;28;20058;-62
2023/05/08 15:10:31;;;;;;;0.68;0.30;;;;;;;;;;5014066;28;20054;-62
2023/05/08 15:13:02;;;;;;;0.85;0.32;;;;;;;;;;5029004;28;20065;-62
2023/05/08 15:15:32;;;;;;;1.33;0.30;;;;;;;;;;4993294;28;20056;-62
2023/05/08 15:18:02;;;;;;;0.40;0.30;;;;;;;;;;5032326;28;20060;-62
2023/05/08 15:20:32;;;;;;;0.50;0.30;;;;;;;;;;5034139;28;20046;-62
2023/05/08 15:23:02;;;;;;;0.50;0.38;;;;;;;;;;4999285;28;20068;-62
2023/05/08 15:25:33;;;;;;;0.30;0.20;;;;;;;;;;5012059;28;20049;-62